createdAt,value
2018-11-05T00:00:50.134Z,59.20
2018-11-05T00:03:55.524Z,65.33
2018-11-05T00:07:00.897Z,61.93
2018-11-05T00:10:06.586Z,57.40
2018-11-05T00:13:12.116Z,61.47
2018-11-05T00:16:17.551Z,61.47
2018-11-05T00:19:23.438Z,61.70
2018-11-05T00:22:28.939Z,67.83
2018-11-05T00:25:34.326Z,66.93
2018-11-05T00:28:39.906Z,62.27
2018-11-05T00:31:45.385Z,57.10
2018-11-05T00:34:50.786Z,64.20
2018-11-05T00:37:56.322Z,61.90
2018-11-05T00:41:01.829Z,55.37
2018-11-05T00:44:07.838Z,59.83
2018-11-05T00:47:13.275Z,57.93
2018-11-05T00:50:20.928Z,65.07
2018-11-05T00:53:26.365Z,60.10
2018-11-05T00:56:31.746Z,54.37
2018-11-05T00:59:37.150Z,57.33
2018-11-05T01:02:42.810Z,56.30
2018-11-05T01:05:48.206Z,53.50
2018-11-05T01:08:53.589Z,57.73
2018-11-05T01:11:59.086Z,53.63
2018-11-05T01:15:04.529Z,55.20
2018-11-05T01:18:09.959Z,55.90
2018-11-05T01:21:15.425Z,55.20
2018-11-05T01:24:20.803Z,58.00
2018-11-05T01:27:26.181Z,53.50
2018-11-05T01:30:31.574Z,58.87
2018-11-05T01:33:37.016Z,54.87
2018-11-05T01:36:42.401Z,55.73
2018-11-05T01:39:47.777Z,58.27
2018-11-05T01:42:53.239Z,54.37
2018-11-05T01:45:58.626Z,55.97
2018-11-05T01:49:04.051Z,51.80
2018-11-05T01:52:10.213Z,57.20
2018-11-05T01:55:15.641Z,57.07
2018-11-05T01:58:21.042Z,53.20
2018-11-05T02:01:26.582Z,58.20
2018-11-05T02:04:31.983Z,52.50
2018-11-05T02:07:37.362Z,55.00
2018-11-05T02:10:42.747Z,49.87
2018-11-05T02:13:48.243Z,51.33
2018-11-05T02:16:53.654Z,60.20
2018-11-05T02:19:59.082Z,59.13
2018-11-05T02:23:05.067Z,59.77
2018-11-05T02:26:10.851Z,51.80
2018-11-05T02:29:16.214Z,54.30
2018-11-05T02:32:21.765Z,55.63
2018-11-05T02:35:27.403Z,53.87
2018-11-05T02:38:32.806Z,54.73
2018-11-05T02:41:38.487Z,64.93
2018-11-05T02:44:43.889Z,62.30
2018-11-05T02:47:49.458Z,59.77
2018-11-05T02:50:54.906Z,55.77
2018-11-05T02:54:00.314Z,54.53
2018-11-05T02:57:05.947Z,50.30
2018-11-05T03:00:19.924Z,59.00
2018-11-05T03:03:25.476Z,56.97
2018-11-05T03:06:31.014Z,54.97
2018-11-05T03:09:36.493Z,58.37
2018-11-05T03:12:42.542Z,59.03
2018-11-05T03:15:47.971Z,63.33
2018-11-05T03:18:53.372Z,52.97
2018-11-05T03:21:59.482Z,61.33
2018-11-05T03:25:05.526Z,55.07
2018-11-05T03:28:10.913Z,58.03
2018-11-05T03:31:16.398Z,55.57
2018-11-05T03:34:22.300Z,55.83
2018-11-05T03:37:28.082Z,51.43
2018-11-05T03:40:33.479Z,57.37
2018-11-05T03:43:38.966Z,57.20
2018-11-05T03:46:45.238Z,56.03
2018-11-05T03:49:50.732Z,51.87
2018-11-05T03:52:56.779Z,51.37
2018-11-05T03:56:02.300Z,50.70
2018-11-05T03:59:07.974Z,56.30
2018-11-05T04:02:13.570Z,54.43
2018-11-05T04:05:18.994Z,51.23
2018-11-05T04:08:24.378Z,50.17
2018-11-05T04:11:30.552Z,50.77
2018-11-05T04:14:36.000Z,49.73
2018-11-05T04:17:41.687Z,49.60
2018-11-05T04:20:47.102Z,52.33
2018-11-05T04:23:52.576Z,53.37
2018-11-05T04:26:57.998Z,49.27
2018-11-05T04:30:03.444Z,46.97
2018-11-05T04:33:08.946Z,47.97
2018-11-05T04:36:14.373Z,45.63
2018-11-05T04:39:19.770Z,48.17
2018-11-05T04:42:25.299Z,51.17
2018-11-05T04:45:30.699Z,50.63
2018-11-05T04:48:36.114Z,51.87
2018-11-05T04:51:41.919Z,49.20
2018-11-05T04:54:47.313Z,55.60
2018-11-05T04:57:52.721Z,52.83
2018-11-05T05:00:58.250Z,50.03
2018-11-05T05:04:03.642Z,52.80
2018-11-05T05:07:09.155Z,54.37
2018-11-05T05:10:14.554Z,57.23
2018-11-05T05:13:20.073Z,51.90
2018-11-05T05:16:25.616Z,52.60
2018-11-05T05:19:31.098Z,56.27
2018-11-05T05:22:36.793Z,58.03
2018-11-05T05:25:42.270Z,60.47
2018-11-05T05:28:49.781Z,54.83
2018-11-05T05:31:55.226Z,62.97
2018-11-05T05:35:00.611Z,62.73
2018-11-05T05:38:06.906Z,63.10
2018-11-05T05:41:12.507Z,60.43
2018-11-05T05:44:18.045Z,60.27
2018-11-05T05:47:23.909Z,59.57
2018-11-05T05:50:29.307Z,55.87
2018-11-05T05:53:34.791Z,61.07
2018-11-05T05:56:40.635Z,62.30
2018-11-05T05:59:48.154Z,58.27
2018-11-05T06:02:53.794Z,56.53
2018-11-05T06:05:59.239Z,60.83
2018-11-05T06:09:07.114Z,54.77
2018-11-05T06:12:12.592Z,52.07
2018-11-05T06:15:18.227Z,54.80
2018-11-05T06:18:23.886Z,60.40
2018-11-05T06:21:29.353Z,62.57
2018-11-05T06:24:34.771Z,65.70
2018-11-05T06:27:40.212Z,56.80
2018-11-05T06:30:45.651Z,53.73
2018-11-05T06:33:51.149Z,65.10
2018-11-05T06:36:56.575Z,61.70
2018-11-05T06:40:01.960Z,63.20
2018-11-05T06:43:07.605Z,62.30
2018-11-05T06:46:13.729Z,51.93
2018-11-05T06:49:19.911Z,63.77
2018-11-05T06:52:25.366Z,60.47
2018-11-05T06:55:30.907Z,59.47
2018-11-05T06:58:36.318Z,58.87
2018-11-05T07:01:41.806Z,56.13
2018-11-05T07:04:47.289Z,58.93
2018-11-05T07:07:53.010Z,61.83
2018-11-05T07:10:58.443Z,64.47
2018-11-05T07:14:06.796Z,60.90
2018-11-05T07:17:12.514Z,60.60
2018-11-05T07:20:19.177Z,60.50
2018-11-05T07:23:24.681Z,59.03
2018-11-05T07:26:30.226Z,64.23
2018-11-05T07:29:36.550Z,54.70
2018-11-05T07:32:43.107Z,59.57
2018-11-05T07:35:48.600Z,57.83
2018-11-05T07:38:54.694Z,61.60
2018-11-05T07:42:00.120Z,59.23
2018-11-05T07:45:07.649Z,59.43
2018-11-05T07:48:13.061Z,58.77
2018-11-05T07:51:18.538Z,57.97
2018-11-05T07:54:23.957Z,52.23
2018-11-05T07:57:29.439Z,54.23
2018-11-05T08:00:39.999Z,59.10
2018-11-05T08:03:45.458Z,61.40
2018-11-05T08:06:51.280Z,55.53
2018-11-05T08:09:56.669Z,54.67
2018-11-05T08:13:02.083Z,57.97
2018-11-05T08:16:08.203Z,59.77
2018-11-05T08:19:13.608Z,56.47
2018-11-05T08:22:19.035Z,55.87
2018-11-05T08:25:24.474Z,59.30
2018-11-05T08:28:29.897Z,58.27
2018-11-05T08:31:35.457Z,59.13
2018-11-05T08:34:40.846Z,54.93
2018-11-05T08:37:47.221Z,54.03
2018-11-05T08:40:52.610Z,56.03
2018-11-05T08:43:57.994Z,55.30
2018-11-05T08:47:04.896Z,55.10
2018-11-05T08:50:13.190Z,53.67
2018-11-05T08:53:18.678Z,54.77
2018-11-05T08:56:24.059Z,55.80
2018-11-05T08:59:29.450Z,53.77
2018-11-05T09:02:35.760Z,55.47
2018-11-05T09:05:41.191Z,51.43
2018-11-05T09:08:46.942Z,52.73
2018-11-05T09:11:52.418Z,54.27
2018-11-05T09:14:58.018Z,56.10
2018-11-05T09:18:03.426Z,54.00
2018-11-05T09:21:08.841Z,55.60
2018-11-05T09:24:14.629Z,55.20
2018-11-05T09:27:20.182Z,49.87
2018-11-05T09:30:26.062Z,48.87
2018-11-05T09:33:31.498Z,43.30
2018-11-05T09:36:36.897Z,51.70
2018-11-05T09:39:42.251Z,49.17
2018-11-05T09:42:48.369Z,54.60
2018-11-05T09:45:53.909Z,51.00
2018-11-05T09:48:59.265Z,55.77
2018-11-05T09:52:04.782Z,48.17
2018-11-05T09:55:11.731Z,50.27
2018-11-05T09:58:17.091Z,49.87
2018-11-05T10:01:22.554Z,50.10
2018-11-05T10:04:28.005Z,46.33
2018-11-05T10:07:33.625Z,50.87
2018-11-05T10:10:39.038Z,48.70
2018-11-05T10:13:44.457Z,45.97
2018-11-05T10:16:49.848Z,46.67
2018-11-05T10:19:55.235Z,51.77
2018-11-05T10:23:00.634Z,52.50
2018-11-05T10:26:06.403Z,52.63
2018-11-05T10:29:11.957Z,49.90
2018-11-05T10:32:17.350Z,48.63
2018-11-05T10:35:27.939Z,50.53
2018-11-05T10:38:35.499Z,47.07
2018-11-05T10:41:41.050Z,44.43
2018-11-05T10:44:46.474Z,48.70
2018-11-05T10:47:51.923Z,52.23
2018-11-05T10:50:57.365Z,48.37
2018-11-05T10:54:02.743Z,51.23
2018-11-05T10:57:08.269Z,49.40
2018-11-05T11:00:23.767Z,48.03
2018-11-05T11:03:34.192Z,50.83
2018-11-05T11:06:39.739Z,45.00
2018-11-05T11:09:45.575Z,49.37
2018-11-05T11:12:52.304Z,46.80
2018-11-05T11:19:30.509Z,52.70
2018-11-05T11:22:36.006Z,43.33
2018-11-05T11:25:41.830Z,48.67
2018-11-05T11:28:47.440Z,46.70
2018-11-05T11:31:52.966Z,46.13
2018-11-05T11:34:59.170Z,48.97
2018-11-05T11:38:04.955Z,50.03
2018-11-05T11:41:10.435Z,54.67
2018-11-05T11:44:15.916Z,51.93
2018-11-05T11:47:21.473Z,57.30
2018-11-05T11:50:27.073Z,59.03
2018-11-05T11:53:32.555Z,54.27
2018-11-05T11:56:38.331Z,59.43
2018-11-05T11:59:43.889Z,55.67
2018-11-05T12:02:50.217Z,56.63
2018-11-05T12:05:55.696Z,54.13
2018-11-05T12:09:01.078Z,55.93
2018-11-05T12:12:07.998Z,55.10
2018-11-05T12:15:15.321Z,57.10
2018-11-05T12:18:20.698Z,54.53
2018-11-05T12:21:26.077Z,55.37
2018-11-05T12:24:31.697Z,55.93
2018-11-05T12:27:37.495Z,59.17
2018-11-05T12:30:42.929Z,58.60
2018-11-05T12:33:48.466Z,63.67
2018-11-05T12:36:53.830Z,52.03
2018-11-05T12:39:59.193Z,62.67
2018-11-05T12:43:04.607Z,58.07
2018-11-05T12:46:10.334Z,62.23
2018-11-05T12:49:17.866Z,67.93
2018-11-05T12:52:23.326Z,64.90
2018-11-05T12:55:28.773Z,60.37
2018-11-05T12:58:34.393Z,66.33
2018-11-05T13:01:40.279Z,65.97
2018-11-05T13:04:45.649Z,62.40
2018-11-05T13:07:51.068Z,67.73
2018-11-05T13:10:56.443Z,67.97
2018-11-05T13:14:01.833Z,62.07
2018-11-05T13:17:07.215Z,69.27
2018-11-05T13:20:16.699Z,70.57
2018-11-05T13:23:27.840Z,72.67
2018-11-05T13:26:33.194Z,72.10
2018-11-05T13:29:38.761Z,79.10
2018-11-05T13:32:44.798Z,61.17
2018-11-05T13:35:50.178Z,66.97
2018-11-05T13:38:55.591Z,70.80
2018-11-05T13:42:01.062Z,75.30
2018-11-05T13:45:08.305Z,68.20
2018-11-05T13:48:14.218Z,79.30
2018-11-05T13:51:20.462Z,69.20
2018-11-05T13:54:25.968Z,71.90
2018-11-05T13:57:31.576Z,71.93
2018-11-05T14:00:37.225Z,72.37
2018-11-05T14:03:42.626Z,72.20
2018-11-05T14:06:48.215Z,74.93
2018-11-05T14:09:53.721Z,64.37
2018-11-05T14:12:59.090Z,73.03
2018-11-05T14:16:04.882Z,66.60
2018-11-05T14:19:10.302Z,67.40
2018-11-05T14:22:15.670Z,73.13
2018-11-05T14:25:21.706Z,67.87
2018-11-05T14:28:27.422Z,68.40
2018-11-05T14:31:33.150Z,78.83
2018-11-05T14:34:38.550Z,68.90
2018-11-05T14:37:43.941Z,71.93
2018-11-05T14:40:49.326Z,76.30
2018-11-05T14:43:54.702Z,76.10
2018-11-05T14:47:00.098Z,75.90
2018-11-05T14:50:07.445Z,76.20
2018-11-05T14:53:12.819Z,78.37
2018-11-05T14:56:18.229Z,75.13
2018-11-05T14:59:23.654Z,77.83
2018-11-05T15:02:34.156Z,69.87
2018-11-05T15:05:39.734Z,77.20
2018-11-05T15:08:45.141Z,74.77
2018-11-05T15:11:50.538Z,79.07
2018-11-05T15:14:55.941Z,74.93
2018-11-05T15:18:02.655Z,71.00
2018-11-05T15:21:08.847Z,74.33
2018-11-05T15:24:14.433Z,73.47
2018-11-05T15:27:19.827Z,76.23
2018-11-05T15:30:25.228Z,77.97
2018-11-05T15:33:30.714Z,78.03
2018-11-05T15:36:36.318Z,77.60
2018-11-05T15:39:41.699Z,72.57
2018-11-05T15:42:47.429Z,72.00
2018-11-05T15:45:52.802Z,72.93
2018-11-05T15:48:58.377Z,70.90
2018-11-05T15:52:04.054Z,71.43
2018-11-05T15:55:09.598Z,68.07
2018-11-05T15:58:14.949Z,69.40
2018-11-05T16:01:20.482Z,67.80
2018-11-05T16:04:26.686Z,70.13
2018-11-05T16:07:32.210Z,71.57
2018-11-05T16:10:37.607Z,74.23
2018-11-05T16:13:43.346Z,66.50
2018-11-05T16:16:48.713Z,71.67
2018-11-05T16:19:54.902Z,71.60
2018-11-05T16:23:00.291Z,71.50
2018-11-05T16:26:06.141Z,63.30
2018-11-05T16:29:11.514Z,70.50
2018-11-05T16:32:17.029Z,70.87
2018-11-05T16:35:22.631Z,67.00
2018-11-05T16:38:28.289Z,66.37
2018-11-05T16:41:33.899Z,70.70
2018-11-05T16:44:39.835Z,67.90
2018-11-05T16:47:45.633Z,76.53
2018-11-05T16:50:51.186Z,69.07
2018-11-05T16:53:56.634Z,74.30
2018-11-05T16:57:02.189Z,72.97
2018-11-05T17:00:08.347Z,73.03
2018-11-05T17:03:13.848Z,71.20
2018-11-05T17:06:19.430Z,72.00
2018-11-05T17:09:24.856Z,69.03
2018-11-05T17:12:31.266Z,67.17
2018-11-05T17:15:36.635Z,74.97
2018-11-05T17:18:42.074Z,76.50
2018-11-05T17:21:47.545Z,80.40
2018-11-05T17:24:53.016Z,73.93
2018-11-05T17:27:58.446Z,80.80
2018-11-05T17:31:03.920Z,79.47
2018-11-05T17:34:09.335Z,80.00
2018-11-05T17:37:14.902Z,69.77
2018-11-05T17:40:21.700Z,75.30
2018-11-05T17:43:27.218Z,69.23
2018-11-05T17:46:32.649Z,72.50
2018-11-05T17:49:38.030Z,74.53
2018-11-05T17:52:44.236Z,68.73
2018-11-05T17:55:49.586Z,76.17
2018-11-05T17:58:55.003Z,72.63
2018-11-05T18:02:00.433Z,69.27
2018-11-05T18:05:06.509Z,71.30
2018-11-05T18:08:11.882Z,73.07
2018-11-05T18:11:17.277Z,66.87
2018-11-05T18:14:22.674Z,66.03
2018-11-05T18:17:28.108Z,65.10
2018-11-05T18:20:33.618Z,70.93
2018-11-05T18:23:39.062Z,69.73
2018-11-05T18:26:44.456Z,65.30
2018-11-05T18:29:49.874Z,70.80
2018-11-05T18:32:55.266Z,68.47
2018-11-05T18:36:00.651Z,68.00
2018-11-05T18:39:09.943Z,74.03
2018-11-05T18:42:27.162Z,69.77
2018-11-05T18:45:32.621Z,71.40
2018-11-05T18:48:38.210Z,67.70
2018-11-05T18:51:43.585Z,70.90
2018-11-05T18:54:49.238Z,68.83
2018-11-05T18:57:54.821Z,75.27
2018-11-05T19:01:00.262Z,71.80
2018-11-05T19:04:06.384Z,71.80
2018-11-05T19:07:11.750Z,69.20
2018-11-05T19:10:17.671Z,71.93
2018-11-05T19:13:23.070Z,72.77
2018-11-05T19:16:28.469Z,71.03
2018-11-05T19:19:33.875Z,71.13
2018-11-05T19:22:41.395Z,70.60
2018-11-05T19:25:46.974Z,75.60
2018-11-05T19:28:52.337Z,73.13
2018-11-05T19:31:57.716Z,71.80
2018-11-05T19:35:03.118Z,66.80
2018-11-05T19:38:08.815Z,68.40
2018-11-05T19:41:14.198Z,73.00
2018-11-05T19:44:20.358Z,68.33
2018-11-05T19:47:25.736Z,67.73
2018-11-05T19:50:31.141Z,73.17
2018-11-05T19:53:36.580Z,67.77
2018-11-05T19:56:42.138Z,66.30
2018-11-05T19:59:47.873Z,68.50
2018-11-05T20:02:54.370Z,66.30
2018-11-05T20:05:59.824Z,65.70
2018-11-05T20:09:07.379Z,61.93
2018-11-05T20:12:12.805Z,66.57
2018-11-05T20:15:18.301Z,61.87
2018-11-05T20:18:23.748Z,60.70
2018-11-05T20:21:29.298Z,61.67
2018-11-05T20:24:34.681Z,62.37
2018-11-05T20:27:40.725Z,63.60
2018-11-05T20:30:46.135Z,59.13
2018-11-05T20:33:51.674Z,65.03
2018-11-05T20:36:57.090Z,61.87
2018-11-05T20:40:02.664Z,59.70
2018-11-05T20:43:07.855Z,65.27
2018-11-05T20:46:13.283Z,59.93
2018-11-05T20:49:18.753Z,65.20
2018-11-05T20:52:24.220Z,60.50
2018-11-05T20:55:29.598Z,58.00
2018-11-05T20:58:35.015Z,58.60
2018-11-05T21:01:43.716Z,65.03
2018-11-05T21:05:00.940Z,59.83
2018-11-05T21:08:06.546Z,58.40
2018-11-05T21:11:11.970Z,59.73
2018-11-05T21:14:20.939Z,63.40
2018-11-05T21:17:37.881Z,62.77
2018-11-05T21:20:43.323Z,58.27
2018-11-05T21:23:48.862Z,58.97
2018-11-05T21:26:54.326Z,58.03
2018-11-05T21:29:59.897Z,62.87
2018-11-05T21:33:05.615Z,67.70
2018-11-05T21:36:11.718Z,64.17
2018-11-05T21:39:17.154Z,63.50
2018-11-05T21:42:22.641Z,61.10
2018-11-05T21:45:28.010Z,68.07
2018-11-05T21:48:33.387Z,59.17
2018-11-05T21:51:38.893Z,58.17
2018-11-05T21:54:44.758Z,62.43
2018-11-05T21:57:50.517Z,59.23
2018-11-05T22:00:55.902Z,69.60
2018-11-05T22:04:01.290Z,65.77
2018-11-05T22:07:07.678Z,62.33
2018-11-05T22:10:13.713Z,60.30
2018-11-05T22:13:19.154Z,65.57
2018-11-05T22:16:24.526Z,62.77
2018-11-05T22:19:29.943Z,61.47
2018-11-05T22:22:35.466Z,60.17
2018-11-05T22:25:41.008Z,54.43
2018-11-05T22:28:46.377Z,58.20
2018-11-05T22:31:51.842Z,53.87
2018-11-05T22:34:57.509Z,56.30
2018-11-05T22:38:03.788Z,58.37
2018-11-05T22:41:09.548Z,61.03
2018-11-05T22:44:15.173Z,57.53
2018-11-05T22:47:20.530Z,56.03
2018-11-05T22:50:25.959Z,55.17
2018-11-05T22:53:31.642Z,58.87
2018-11-05T22:56:37.038Z,58.60
2018-11-05T22:59:42.922Z,55.37
2018-11-05T23:02:53.594Z,53.33
2018-11-05T23:05:59.786Z,57.07
2018-11-05T23:09:07.018Z,57.47
2018-11-05T23:12:12.518Z,60.80
2018-11-05T23:15:18.236Z,56.07
2018-11-05T23:18:23.598Z,53.57
2018-11-05T23:21:29.063Z,54.47
2018-11-05T23:24:34.450Z,53.87
2018-11-05T23:27:40.153Z,55.23
2018-11-05T23:30:45.578Z,54.90
2018-11-05T23:33:50.937Z,58.27
2018-11-05T23:36:56.482Z,56.40
2018-11-05T23:40:01.858Z,54.37
2018-11-05T23:43:07.294Z,56.07
2018-11-05T23:46:12.662Z,55.43
2018-11-05T23:49:18.146Z,51.07
2018-11-05T23:52:23.962Z,54.70
2018-11-05T23:55:29.335Z,54.13
2018-11-05T23:58:34.704Z,54.60
